Time;durP1;ratioP1;P1;durP2;ratioP2;P2;SDS_P1;SDS_P2;PMS_P1;PMS_P2;Temp;Humidity;BMP_temperature;BMP_pressure;BME280_temperature;BME280_humidity;BME280_pressure;Samples;Min_cycle;Max_cycle;Signal;HPM_P1;HPM_P2
2021/04/26 00:02:19;;;;;;;10.93;2.72;;;31.50;14.70;;;;;;5101553;28;20100;-62
2021/04/26 00:04:45;;;;;;;9.32;2.20;;;31.50;14.60;;;;;;5099608;28;20072;-63
2021/04/26 00:07:12;;;;;;;10.65;2.40;;;31.60;14.70;;;;;;5096423;28;20065;-63
2021/04/26 00:09:38;;;;;;;11.75;2.33;;;31.60;14.80;;;;;;5099468;28;20187;-62
2021/04/26 00:12:05;;;;;;;12.15;2.70;;;31.50;14.80;;;;;;5100191;28;20076;-61
2021/04/26 00:14:33;;;;;;;15.57;2.40;;;31.40;15.10;;;;;;5096849;28;20073;-62
2021/04/26 00:17:00;;;;;;;17.23;2.65;;;31.40;14.80;;;;;;5098501;28;20521;-63
2021/04/26 00:19:26;;;;;;;9.73;2.22;;;31.30;14.90;;;;;;5100268;28;20080;-63
2021/04/26 00:21:52;;;;;;;7.93;2.45;;;31.20;15.10;;;;;;5099650;28;20159;-61
2021/04/26 00:24:19;;;;;;;8.98;2.70;;;31.20;15.30;;;;;;5099439;28;20080;-61
2021/04/26 00:26:45;;;;;;;5.95;2.22;;;31.10;15.50;;;;;;5099118;28;20072;-61
2021/04/26 00:29:12;;;;;;;6.03;2.25;;;31.10;15.60;;;;;;5098585;28;20107;-62
2021/04/26 00:31:39;;;;;;;12.25;2.05;;;31.10;15.70;;;;;;5098482;28;20073;-61
2021/04/26 00:34:05;;;;;;;8.85;2.58;;;31.10;15.80;;;;;;5097918;28;20091;-61
2021/04/26 00:36:32;;;;;;;9.20;2.17;;;31.10;16.00;;;;;;5081844;28;20096;-60
2021/04/26 00:38:58;;;;;;;13.10;2.78;;;30.90;16.20;;;;;;5066990;28;20076;-61
2021/04/26 00:41:25;;;;;;;11.07;2.50;;;30.80;16.30;;;;;;5101482;28;20414;-61
2021/04/26 00:43:51;;;;;;;12.13;2.75;;;30.80;16.70;;;;;;5101519;28;20440;-63
2021/04/26 00:46:18;;;;;;;10.20;2.35;;;30.80;16.80;;;;;;5097680;28;20112;-61
2021/04/26 00:48:44;;;;;;;11.18;2.35;;;30.80;16.90;;;;;;5096670;28;20101;-61
2021/04/26 00:51:11;;;;;;;10.52;2.28;;;30.70;16.70;;;;;;5098554;28;20107;-58
2021/04/26 00:53:38;;;;;;;6.95;2.35;;;30.70;16.90;;;;;;5100788;28;20532;-58
2021/04/26 00:56:05;;;;;;;9.63;2.50;;;30.80;17.00;;;;;;5097444;28;20520;-62
2021/04/26 00:58:31;;;;;;;9.00;2.63;;;30.90;17.00;;;;;;5096629;28;20068;-61
2021/04/26 01:00:58;;;;;;;7.18;2.33;;;30.80;17.10;;;;;;5098312;28;20155;-61
2021/04/26 01:03:25;;;;;;;8.35;2.20;;;30.60;17.60;;;;;;5097904;28;20117;-60
2021/04/26 01:05:51;;;;;;;8.93;2.47;;;30.40;18.10;;;;;;5079776;28;20088;-66
2021/04/26 01:08:18;;;;;;;8.68;2.58;;;30.30;18.30;;;;;;5081480;28;20093;-60
2021/04/26 01:10:45;;;;;;;11.90;2.50;;;30.10;18.50;;;;;;5098376;28;20121;-62
2021/04/26 01:13:50;;;;;;;14.95;2.65;;;29.80;18.90;;;;;;5096461;28;20076;-61
2021/04/26 01:16:28;;;;;;;12.45;2.60;;;29.70;19.30;;;;;;5083021;28;20435;-58
2021/04/26 01:19:25;;;;;;;10.02;2.40;;;29.50;19.50;;;;;;5098338;28;20159;-60
2021/04/26 01:22:13;;;;;;;13.25;5.22;;;29.50;19.80;;;;;;5096868;28;20076;-62
2021/04/26 01:25:05;;;;;;;10.15;2.60;;;29.50;19.70;;;;;;5078493;28;20091;-62
2021/04/26 01:27:47;;;;;;;16.48;2.58;;;29.40;19.90;;;;;;5099487;28;20068;-63
2021/04/26 01:30:40;;;;;;;11.45;2.30;;;29.30;20.20;;;;;;5095223;28;20079;-63
2021/04/26 01:33:14;;;;;;;16.35;3.13;;;29.10;20.20;;;;;;5095247;28;20075;-62
2021/04/26 01:35:41;;;;;;;16.08;2.95;;;29.10;20.60;;;;;;5096522;28;20529;-61
2021/04/26 01:38:32;;;;;;;11.65;2.30;;;28.90;20.80;;;;;;5098568;28;20514;-62
2021/04/26 01:41:00;;;;;;;16.13;2.95;;;28.70;21.00;;;;;;5096830;28;20525;-57
2021/04/26 01:43:28;;;;;;;12.80;2.47;;;28.70;21.30;;;;;;5094903;28;20164;-60
2021/04/26 01:45:58;;;;;;;17.15;2.85;;;28.50;21.50;;;;;;5093842;28;20140;-60
2021/04/26 01:48:28;;;;;;;21.50;3.10;;;28.50;21.80;;;;;;5098382;28;20503;-59
2021/04/26 01:50:59;;;;;;;18.40;3.20;;;28.40;22.00;;;;;;5096728;28;20088;-60
2021/04/26 01:53:27;;;;;;;23.00;3.53;;;28.30;22.50;;;;;;5095388;28;20077;-59
2021/04/26 01:55:58;;;;;;;30.13;3.53;;;28.20;22.80;;;;;;5097076;28;20074;-62
2021/04/26 01:58:26;;;;;;;37.55;4.78;;;28.10;23.00;;;;;;5098124;28;20091;-61
2021/04/26 02:00:53;;;;;;;38.67;4.68;;;27.90;23.40;;;;;;5100075;28;20064;-61
2021/04/26 02:03:21;;;;;;;35.28;4.07;;;27.70;23.70;;;;;;5092156;28;20414;-60
2021/04/26 02:05:51;;;;;;;41.63;4.47;;;27.70;24.10;;;;;;5097228;28;20397;-62
2021/04/26 02:08:18;;;;;;;31.63;4.28;;;27.60;24.40;;;;;;5096906;28;20096;-55
2021/04/26 02:10:46;;;;;;;53.75;5.38;;;27.50;24.60;;;;;;5094732;28;20065;-56
2021/04/26 02:13:18;;;;;;;43.20;4.05;;;27.40;24.90;;;;;;5094800;28;20107;-57
2021/04/26 02:15:46;;;;;;;39.88;3.85;;;27.30;25.10;;;;;;5094570;28;20061;-60
2021/04/26 02:18:12;;;;;;;21.23;4.10;;;27.20;25.20;;;;;;5096688;28;20080;-59
2021/04/26 02:20:39;;;;;;;31.75;4.78;;;27.10;25.10;;;;;;5098323;28;20120;-61
2021/04/26 02:23:06;;;;;;;25.45;3.58;;;27.00;25.60;;;;;;5099625;28;20122;-61
2021/04/26 02:25:33;;;;;;;35.25;4.57;;;26.80;25.60;;;;;;5096208;28;20113;-59
2021/04/26 02:27:59;;;;;;;30.73;4.78;;;26.80;25.80;;;;;;5096785;28;20595;-61
2021/04/26 02:30:27;;;;;;;29.92;5.03;;;26.80;25.80;;;;;;5095895;28;20076;-61
2021/04/26 02:33:14;;;;;;;27.15;3.53;;;26.70;25.80;;;;;;5096995;28;20221;-60
2021/04/26 02:35:45;;;;;;;37.78;3.53;;;26.70;25.90;;;;;;5096857;28;20073;-60
2021/04/26 02:38:28;;;;;;;23.30;3.92;;;26.60;26.00;;;;;;5098936;28;20405;-55
2021/04/26 02:41:07;;;;;;;31.95;4.15;;;26.60;26.00;;;;;;5097404;28;20342;-58
2021/04/26 02:43:45;;;;;;;38.63;5.47;;;26.60;26.20;;;;;;5101207;28;20080;-62
2021/04/26 02:46:14;;;;;;;28.25;4.63;;;26.40;26.40;;;;;;5102005;28;20142;-61
2021/04/26 02:48:45;;;;;;;33.05;4.07;;;26.30;26.50;;;;;;5101592;28;20179;-61
2021/04/26 02:51:12;;;;;;;20.38;3.75;;;26.20;26.50;;;;;;5100848;28;20073;-61
2021/04/26 02:53:39;;;;;;;27.70;4.10;;;26.20;26.50;;;;;;5101408;28;20087;-61
2021/04/26 02:56:14;;;;;;;17.30;3.53;;;26.00;26.50;;;;;;5101107;28;20075;-60
2021/04/26 02:58:44;;;;;;;40.00;4.32;;;26.00;26.50;;;;;;5101363;28;20082;-60
2021/04/26 03:01:12;;;;;;;29.95;4.25;;;25.90;26.50;;;;;;5099947;28;20069;-60
2021/04/26 03:03:42;;;;;;;24.67;4.55;;;25.80;26.50;;;;;;5100727;28;20072;-60
2021/04/26 03:06:10;;;;;;;24.88;4.72;;;25.70;26.30;;;;;;5099242;28;20069;-60
2021/04/26 03:08:37;;;;;;;16.63;3.60;;;25.60;26.40;;;;;;5099526;28;20103;-59
2021/04/26 03:11:14;;;;;;;26.92;4.40;;;25.50;26.40;;;;;;5100561;28;20551;-58
2021/04/26 03:13:42;;;;;;;38.25;4.32;;;25.40;26.80;;;;;;5101234;28;20540;-58
2021/04/26 03:16:09;;;;;;;22.25;4.38;;;25.40;26.90;;;;;;5102051;28;20073;-58
2021/04/26 03:18:38;;;;;;;27.30;4.20;;;25.30;26.80;;;;;;5099712;28;20076;-60
2021/04/26 03:21:09;;;;;;;21.55;3.95;;;25.10;26.80;;;;;;5101227;28;20077;-62
2021/04/26 03:23:36;;;;;;;18.45;3.08;;;25.10;26.80;;;;;;5097711;28;20514;-60
2021/04/26 03:26:06;;;;;;;23.55;4.15;;;25.00;26.70;;;;;;5099966;28;20159;-61
2021/04/26 03:28:34;;;;;;;12.02;2.83;;;24.90;26.50;;;;;;5082469;28;20541;-60
2021/04/26 03:31:03;;;;;;;29.55;3.97;;;24.80;26.70;;;;;;5099552;28;20110;-61
2021/04/26 03:33:34;;;;;;;23.35;3.28;;;24.60;26.90;;;;;;5097176;28;20100;-61
2021/04/26 03:36:01;;;;;;;20.60;4.03;;;24.70;27.10;;;;;;5082870;28;20096;-61
2021/04/26 03:38:30;;;;;;;25.48;3.80;;;24.60;27.20;;;;;;5101214;28;20078;-63
2021/04/26 03:40:58;;;;;;;27.67;3.67;;;24.50;27.60;;;;;;5097927;28;20588;-60
2021/04/26 03:43:25;;;;;;;23.25;3.95;;;24.30;27.70;;;;;;5096821;28;20159;-60
2021/04/26 03:45:57;;;;;;;26.35;4.05;;;24.20;28.00;;;;;;5101315;28;20076;-59
2021/04/26 03:48:24;;;;;;;40.03;4.57;;;24.10;28.20;;;;;;5100762;28;20092;-63
2021/04/26 03:50:51;;;;;;;34.60;3.45;;;24.00;28.50;;;;;;5096720;28;20110;-61
2021/04/26 03:53:17;;;;;;;38.75;3.90;;;23.80;28.90;;;;;;5100246;28;20188;-60
2021/04/26 03:55:44;;;;;;;38.72;4.55;;;23.70;29.10;;;;;;5100478;28;20068;-60
2021/04/26 03:58:10;;;;;;;37.33;4.18;;;23.60;29.50;;;;;;5082231;28;20072;-60
2021/04/26 04:00:37;;;;;;;28.10;3.65;;;23.60;29.70;;;;;;5099018;28;20073;-60
2021/04/26 04:03:08;;;;;;;36.10;5.65;;;23.40;29.90;;;;;;5102660;28;20164;-60
2021/04/26 04:05:37;;;;;;;35.47;4.65;;;23.30;30.00;;;;;;5100369;28;20155;-61
2021/04/26 04:08:05;;;;;;;45.45;5.70;;;23.30;30.00;;;;;;5094297;28;20565;-60
2021/04/26 04:10:33;;;;;;;44.70;5.43;;;23.30;29.90;;;;;;5099061;28;20064;-60
2021/04/26 04:13:00;;;;;;;49.92;4.82;;;23.30;29.60;;;;;;5102469;28;20083;-61
2021/04/26 04:15:27;;;;;;;46.13;5.45;;;23.30;29.30;;;;;;5100291;28;20150;-60
2021/04/26 04:17:54;;;;;;;45.60;5.30;;;23.30;29.00;;;;;;5099334;28;20129;-60
2021/04/26 04:20:20;;;;;;;44.70;6.82;;;23.20;28.60;;;;;;5082935;28;20083;-60
2021/04/26 04:22:47;;;;;;;58.92;5.32;;;23.20;28.20;;;;;;5086213;28;20521;-61
2021/04/26 04:25:14;;;;;;;42.42;5.47;;;23.20;27.90;;;;;;5100697;28;20467;-61
2021/04/26 04:27:40;;;;;;;41.03;4.72;;;23.20;27.70;;;;;;5097664;28;20069;-56
2021/04/26 04:30:09;;;;;;;44.17;4.45;;;23.30;27.50;;;;;;5098627;28;20697;-61
2021/04/26 04:32:35;;;;;;;35.13;4.47;;;23.20;27.30;;;;;;5096896;28;20607;-60
2021/04/26 04:35:03;;;;;;;29.40;3.70;;;23.10;27.60;;;;;;5099118;28;20077;-60
2021/04/26 04:37:29;;;;;;;19.98;3.42;;;23.10;28.60;;;;;;5099105;28;20065;-58
2021/04/26 04:39:56;;;;;;;30.95;3.60;;;23.10;28.50;;;;;;5084756;28;20540;-59
2021/04/26 04:42:22;;;;;;;44.42;5.70;;;23.00;28.80;;;;;;5100017;28;20576;-61
2021/04/26 04:44:48;;;;;;;35.70;4.15;;;22.90;28.90;;;;;;5099074;28;20125;-60
2021/04/26 04:47:15;;;;;;;56.05;5.25;;;22.80;28.90;;;;;;5100064;28;20117;-62
2021/04/26 04:49:42;;;;;;;25.80;3.78;;;22.80;29.20;;;;;;5082516;28;20101;-60
2021/04/26 04:52:08;;;;;;;25.38;4.00;;;22.70;29.50;;;;;;5098964;28;20380;-60
2021/04/26 04:54:35;;;;;;;25.77;3.10;;;22.70;29.70;;;;;;5096768;28;20090;-61
2021/04/26 04:57:01;;;;;;;39.30;3.50;;;22.60;30.00;;;;;;5083397;28;20153;-60
2021/04/26 04:59:28;;;;;;;31.98;4.75;;;22.50;29.80;;;;;;5100007;28;20072;-61
2021/04/26 05:01:54;;;;;;;36.33;5.00;;;22.50;29.80;;;;;;5099119;28;20509;-62
2021/04/26 05:04:20;;;;;;;37.45;3.70;;;22.40;30.00;;;;;;5097374;28;20108;-62
2021/04/26 05:06:47;;;;;;;37.30;5.05;;;22.40;30.10;;;;;;5098377;28;20076;-62
2021/04/26 05:09:13;;;;;;;25.70;3.50;;;22.30;30.90;;;;;;5100317;28;20524;-59
2021/04/26 05:11:40;;;;;;;42.33;3.83;;;22.20;31.80;;;;;;5096831;28;20071;-60
2021/04/26 05:14:06;;;;;;;21.35;2.97;;;22.10;32.30;;;;;;5100025;28;20559;-60
2021/04/26 05:16:34;;;;;;;38.45;3.40;;;22.10;32.50;;;;;;5105530;28;20082;-62
2021/04/26 05:19:02;;;;;;;25.55;3.22;;;22.00;33.20;;;;;;5102216;28;20532;-58
2021/04/26 05:21:29;;;;;;;43.38;4.68;;;22.00;34.50;;;;;;5099082;28;20099;-60
2021/04/26 05:23:56;;;;;;;43.38;4.05;;;21.90;35.50;;;;;;5096910;28;20532;-59
2021/04/26 05:26:27;;;;;;;55.38;4.63;;;21.80;36.60;;;;;;5098239;28;20080;-62
2021/04/26 05:28:53;;;;;;;51.55;4.10;;;21.60;37.10;;;;;;5093928;28;20572;-61
2021/04/26 05:31:21;;;;;;;29.02;4.30;;;21.50;37.20;;;;;;5093250;28;20436;-60
2021/04/26 05:33:48;;;;;;;44.45;4.38;;;21.40;37.40;;;;;;5089156;28;20081;-61
2021/04/26 05:36:14;;;;;;;32.63;4.13;;;21.30;37.40;;;;;;5072246;28;20079;-60
2021/04/26 05:38:41;;;;;;;41.45;4.63;;;21.20;37.60;;;;;;5096966;28;20430;-61
2021/04/26 05:41:08;;;;;;;35.05;3.47;;;21.10;37.80;;;;;;5075230;28;20126;-61
2021/04/26 05:43:34;;;;;;;31.25;3.88;;;21.10;38.10;;;;;;5091938;28;20072;-62
2021/04/26 05:46:01;;;;;;;28.33;3.17;;;21.10;38.20;;;;;;5089562;28;20120;-61
2021/04/26 05:48:28;;;;;;;17.13;2.70;;;21.10;38.00;;;;;;5094025;28;20579;-62
2021/04/26 05:50:55;;;;;;;39.90;3.65;;;21.00;37.10;;;;;;5091986;28;20084;-59
2021/04/26 05:53:22;;;;;;;38.28;3.33;;;21.00;36.90;;;;;;5094924;28;20092;-61
2021/04/26 05:55:49;;;;;;;37.10;3.28;;;21.10;36.40;;;;;;5090146;28;20064;-61
2021/04/26 05:58:16;;;;;;;18.20;2.75;;;21.00;36.40;;;;;;5097730;28;20084;-61
2021/04/26 06:00:42;;;;;;;24.50;2.67;;;21.00;36.70;;;;;;5092350;28;20083;-61
2021/04/26 06:03:09;;;;;;;17.65;3.40;;;21.00;36.50;;;;;;5095076;28;20084;-60
2021/04/26 06:05:35;;;;;;;19.35;2.72;;;20.90;36.30;;;;;;5092896;28;20530;-61
2021/04/26 06:08:02;;;;;;;11.93;2.20;;;20.90;35.80;;;;;;5090679;28;20116;-61
2021/04/26 06:10:29;;;;;;;18.83;3.20;;;20.90;35.40;;;;;;5055280;28;20083;-61
2021/04/26 06:12:55;;;;;;;15.18;2.15;;;20.90;35.20;;;;;;5071932;28;20091;-60
2021/04/26 06:15:27;;;;;;;11.90;2.22;;;20.90;35.20;;;;;;5091614;28;20540;-58
2021/04/26 06:18:14;;;;;;;13.55;2.63;;;20.80;35.70;;;;;;5094330;28;20498;-61
2021/04/26 06:20:42;;;;;;;14.63;2.42;;;20.80;36.40;;;;;;5099153;28;20121;-61
2021/04/26 06:23:09;;;;;;;17.45;2.60;;;20.70;37.40;;;;;;5092717;28;20176;-55
2021/04/26 06:25:38;;;;;;;26.23;2.50;;;20.70;38.30;;;;;;5093086;28;20437;-58
2021/04/26 06:28:11;;;;;;;24.30;2.75;;;20.50;39.10;;;;;;5095548;28;20099;-60
2021/04/26 06:30:39;;;;;;;11.73;2.13;;;20.40;39.30;;;;;;5094213;28;20490;-61
2021/04/26 06:33:06;;;;;;;15.40;2.75;;;20.40;40.00;;;;;;5095164;28;20429;-60
2021/04/26 06:35:33;;;;;;;16.88;2.58;;;20.20;40.50;;;;;;5094655;28;20069;-61
2021/04/26 06:37:59;;;;;;;18.45;2.28;;;20.30;40.30;;;;;;5094096;28;20072;-64
2021/04/26 06:40:26;;;;;;;22.58;2.65;;;20.30;39.90;;;;;;5096853;28;20626;-60
2021/04/26 06:42:52;;;;;;;10.30;1.90;;;20.30;39.90;;;;;;5094377;28;20081;-61
2021/04/26 06:45:23;;;;;;;18.25;2.08;;;20.30;40.60;;;;;;5095563;28;20073;-60
2021/04/26 06:47:51;;;;;;;17.20;2.38;;;20.20;41.30;;;;;;5094902;28;20199;-61
2021/04/26 06:50:18;;;;;;;14.68;2.17;;;20.10;42.00;;;;;;5092379;28;20163;-59
2021/04/26 06:52:46;;;;;;;15.30;2.00;;;20.00;42.20;;;;;;5075530;28;20073;-60
2021/04/26 06:55:13;;;;;;;15.00;2.90;;;19.90;42.80;;;;;;5076322;28;20077;-60
2021/04/26 06:57:40;;;;;;;22.48;2.58;;;19.90;43.30;;;;;;5100615;28;20069;-58
2021/04/26 07:00:09;;;;;;;12.45;2.10;;;19.80;43.70;;;;;;5102336;28;20081;-60
2021/04/26 07:02:35;;;;;;;12.88;2.53;;;19.80;44.10;;;;;;5098144;28;20080;-57
2021/04/26 07:05:03;;;;;;;15.65;2.88;;;19.70;44.60;;;;;;5099957;28;20418;-60
2021/04/26 07:07:30;;;;;;;31.17;3.10;;;19.60;45.00;;;;;;5060830;28;20533;-60
2021/04/26 07:09:59;;;;;;;21.52;2.65;;;19.60;45.30;;;;;;5091520;28;20124;-60
2021/04/26 07:12:25;;;;;;;26.90;2.90;;;19.50;45.60;;;;;;5094378;28;20068;-54
2021/04/26 07:14:51;;;;;;;;;;;19.40;45.80;;;;;;5095468;28;20082;-61
2021/04/26 07:17:19;;;;;;;28.30;2.63;;;19.40;46.00;;;;;;5092896;28;20439;-63
2021/04/26 07:19:46;;;;;;;19.42;2.83;;;19.40;46.30;;;;;;5092021;28;20083;-63
2021/04/26 07:22:12;;;;;;;;;;;19.30;46.80;;;;;;5088918;28;20171;-63
2021/04/26 07:24:38;;;;;;;25.95;2.30;;;19.20;47.10;;;;;;5091284;28;20421;-62
2021/04/26 07:27:04;;;;;;;;;;;19.20;47.20;;;;;;5090610;28;20073;-63
2021/04/26 07:29:31;;;;;;;45.38;3.45;;;19.10;47.70;;;;;;5091827;28;19976;-62
2021/04/26 07:31:57;;;;;;;;;;;19.00;48.10;;;;;;5094005;28;20108;-63
2021/04/26 07:34:23;;;;;;;38.55;3.78;;;18.90;48.40;;;;;;5093169;28;19961;-63
2021/04/26 07:36:50;;;;;;;;;;;18.80;49.10;;;;;;5094896;28;20151;-64
2021/04/26 07:39:18;;;;;;;22.00;2.72;;;19.00;48.50;;;;;;5094153;28;19999;-62
2021/04/26 07:41:45;;;;;;;32.95;3.63;;;19.00;48.40;;;;;;5095516;28;20556;-64
2021/04/26 07:44:12;;;;;;;38.00;3.47;;;18.90;48.50;;;;;;5095932;28;20512;-64
2021/04/26 07:46:38;;;;;;;31.95;3.22;;;18.80;48.90;;;;;;5092440;28;20104;-61
2021/04/26 07:49:04;;;;;;;;;;;18.70;49.10;;;;;;5089274;28;20092;-64
2021/04/26 07:51:31;;;;;;;24.42;2.70;;;18.80;48.80;;;;;;5092630;28;19956;-61
2021/04/26 07:53:57;;;;;;;;;;;18.80;48.70;;;;;;5092680;28;20089;-63
2021/04/26 07:56:24;;;;;;;26.85;2.50;;;18.80;48.30;;;;;;5093492;28;19961;-62
2021/04/26 07:58:50;;;;;;;26.40;3.00;;;18.80;48.20;;;;;;5100943;28;20080;-59
2021/04/26 08:01:16;;;;;;;;;;;18.80;48.50;;;;;;5094000;28;20117;-61
2021/04/26 08:03:43;;;;;;;32.90;2.72;;;18.80;48.30;;;;;;5093489;28;19956;-59
2021/04/26 08:06:09;;;;;;;;;;;18.80;48.20;;;;;;5095661;28;20394;-59
2021/04/26 08:08:35;;;;;;;20.10;2.08;;;18.70;48.10;;;;;;5091826;28;20457;-61
2021/04/26 08:11:02;;;;;;;;;;;18.70;48.30;;;;;;5094511;28;20414;-59
2021/04/26 08:13:28;;;;;;;26.67;1.90;;;18.60;48.30;;;;;;5092811;28;19971;-60
2021/04/26 08:15:57;;;;;;;24.20;2.28;;;18.60;48.40;;;;;;5091011;28;20080;-61
2021/04/26 08:18:24;;;;;;;24.67;3.03;;;18.60;48.40;;;;;;5091716;28;20071;-61
2021/04/26 08:20:51;;;;;;;20.05;2.47;;;18.60;48.20;;;;;;5092226;28;20064;-61
2021/04/26 08:23:18;;;;;;;16.65;2.03;;;18.60;48.10;;;;;;5096986;28;20641;-61
2021/04/26 08:25:44;;;;;;;;;;;18.60;48.00;;;;;;5092349;28;20078;-60
2021/04/26 08:28:12;;;;;;;23.08;2.35;;;18.60;48.10;;;;;;5093890;28;19972;-60
2021/04/26 08:30:39;;;;;;;15.38;2.10;;;18.50;48.10;;;;;;5094230;28;20064;-59
2021/04/26 08:33:06;;;;;;;13.35;2.22;;;18.60;48.20;;;;;;5074537;28;20134;-60
2021/04/26 08:35:33;;;;;;;18.45;1.98;;;18.60;48.20;;;;;;5092245;28;20065;-60
2021/04/26 08:37:59;;;;;;;;;;;18.60;48.10;;;;;;5094208;28;20064;-59
2021/04/26 08:40:25;;;;;;;22.13;2.15;;;18.60;47.90;;;;;;5091181;28;19956;-60
2021/04/26 08:42:52;;;;;;;20.30;2.20;;;18.60;47.70;;;;;;5088799;28;20574;-61
2021/04/26 08:45:19;;;;;;;29.95;2.45;;;18.60;47.70;;;;;;5073025;28;20156;-61
2021/04/26 08:47:46;;;;;;;20.95;2.85;;;18.60;47.60;;;;;;5093819;28;20120;-61
2021/04/26 08:50:13;;;;;;;30.73;2.42;;;18.60;47.30;;;;;;5073441;28;20084;-61
2021/04/26 08:52:41;;;;;;;25.05;2.10;;;18.60;47.10;;;;;;5089291;28;20069;-61
2021/04/26 08:55:08;;;;;;;30.33;2.65;;;18.50;47.10;;;;;;5095817;28;20160;-60
2021/04/26 08:57:35;;;;;;;32.97;3.47;;;18.50;47.00;;;;;;5091670;28;20081;-58
2021/04/26 09:00:03;;;;;;;34.97;2.70;;;18.50;47.00;;;;;;5093868;28;20397;-59
2021/04/26 09:03:00;;;;;;;26.60;2.60;;;18.50;47.20;;;;;;5094217;28;20155;-61
2021/04/26 09:05:35;;;;;;;21.10;1.95;;;18.40;47.30;;;;;;5093615;28;20076;-58
2021/04/26 09:08:04;;;;;;;9.35;1.55;;;18.50;47.30;;;;;;5090449;28;20140;-60
2021/04/26 09:10:46;;;;;;;21.30;1.77;;;18.50;47.30;;;;;;5092047;28;20095;-60
2021/04/26 09:13:30;;;;;;;14.07;1.85;;;18.40;47.50;;;;;;5073479;28;20076;-59
2021/04/26 09:16:06;;;;;;;18.67;2.08;;;18.40;47.60;;;;;;5091435;28;20133;-59
2021/04/26 09:18:49;;;;;;;38.80;2.25;;;18.30;47.50;;;;;;5093323;28;20083;-58
2021/04/26 09:21:19;;;;;;;11.77;1.30;;;18.30;47.30;;;;;;5089948;28;20065;-59
2021/04/26 09:24:07;;;;;;;11.90;1.63;;;18.40;47.50;;;;;;5090503;28;20161;-59
2021/04/26 09:26:33;;;;;;;16.63;1.50;;;18.30;47.70;;;;;;5090581;28;20125;-61
2021/04/26 09:29:13;;;;;;;;;;;18.30;48.00;;;;;;5098608;28;20440;-61
2021/04/26 09:31:41;;;;;;;13.27;1.65;;;18.30;48.10;;;;;;5093024;28;19957;-61
2021/04/26 09:34:30;;;;;;;11.02;1.30;;;18.40;48.00;;;;;;5093347;28;20080;-59
2021/04/26 09:37:12;;;;;;;6.60;1.33;;;18.30;48.20;;;;;;5090414;28;20080;-61
2021/04/26 09:39:57;;;;;;;18.42;1.42;;;18.30;48.40;;;;;;5090132;28;20068;-60
2021/04/26 09:42:42;;;;;;;11.45;1.33;;;18.40;48.70;;;;;;5093326;28;20068;-60
2021/04/26 09:45:29;;;;;;;14.00;1.25;;;18.30;48.80;;;;;;5088942;28;20133;-61
2021/04/26 09:48:14;;;;;;;14.93;1.30;;;18.40;48.40;;;;;;5089181;28;20140;-59
2021/04/26 09:51:00;;;;;;;11.07;1.30;;;18.50;48.40;;;;;;5091905;28;20080;-60
2021/04/26 09:53:44;;;;;;;13.77;1.83;;;18.50;48.40;;;;;;5092148;28;20163;-61
2021/04/26 09:56:16;;;;;;;19.48;2.22;;;18.50;48.40;;;;;;5091826;28;20065;-61
2021/04/26 09:58:46;;;;;;;30.98;2.28;;;18.50;48.50;;;;;;5090227;28;20079;-61
2021/04/26 10:01:13;;;;;;;23.15;1.92;;;18.50;48.60;;;;;;5092723;28;20113;-61
2021/04/26 10:03:40;;;;;;;;;;;18.40;48.70;;;;;;5092463;28;20103;-62
2021/04/26 10:06:06;;;;;;;25.87;2.27;;;18.40;48.70;;;;;;5075084;28;19961;-60
2021/04/26 10:08:32;;;;;;;;;;;18.50;49.30;;;;;;5091204;28;20351;-61
2021/04/26 10:10:59;;;;;;;17.15;1.73;;;18.50;48.90;;;;;;5092008;28;20068;-60
2021/04/26 10:13:26;;;;;;;;;;;18.50;49.20;;;;;;5097324;28;20098;-59
2021/04/26 10:15:59;;;;;;;20.23;1.90;;;18.40;49.40;;;;;;5095458;28;20328;-58
2021/04/26 10:18:37;;;;;;;17.65;1.80;;;18.40;49.60;;;;;;5074966;28;20437;-60
2021/04/26 10:21:25;;;;;;;35.65;2.50;;;18.40;49.60;;;;;;5091077;28;20076;-61
2021/04/26 10:23:53;;;;;;;;;;;18.50;49.50;;;;;;5076600;28;20077;-61
2021/04/26 10:26:42;;;;;;;32.40;2.63;;;18.50;49.60;;;;;;5091949;28;20003;-59
2021/04/26 10:29:09;;;;;;;38.20;2.95;;;18.50;49.70;;;;;;5079994;28;20107;-57
2021/04/26 10:32:11;;;;;;;46.90;2.90;;;18.60;49.70;;;;;;5087352;28;20075;-60
2021/04/26 10:34:43;;;;;;;35.50;2.45;;;18.50;49.70;;;;;;5006272;28;20182;-61
2021/04/26 10:37:15;;;;;;;37.85;2.70;;;18.50;49.70;;;;;;5078731;28;20112;-60
2021/04/26 10:40:00;;;;;;;32.92;2.45;;;18.50;49.50;;;;;;5092615;28;20163;-60
2021/04/26 10:42:43;;;;;;;36.10;2.83;;;18.50;49.40;;;;;;5087917;28;20080;-60
2021/04/26 10:45:21;;;;;;;43.78;2.42;;;18.50;49.10;;;;;;5091090;28;20073;-60
2021/04/26 10:48:10;;;;;;;33.72;3.45;;;18.50;48.80;;;;;;5095332;28;20119;-60
2021/04/26 10:50:39;;;;;;;29.88;2.05;;;18.50;48.50;;;;;;5092997;28;20076;-61
2021/04/26 10:53:07;;;;;;;19.98;2.15;;;18.50;48.10;;;;;;5090419;28;20072;-61
2021/04/26 10:55:34;;;;;;;36.58;2.35;;;18.50;47.70;;;;;;5088066;28;20076;-61
2021/04/26 10:58:02;;;;;;;;;;;18.50;48.00;;;;;;5087600;28;20413;-61
2021/04/26 11:00:31;;;;;;;;;;;18.50;48.10;;;;;;5091715;28;20476;-61
2021/04/26 11:03:09;;;;;;;10.98;1.48;;;18.50;48.30;;;;;;5097915;28;19957;-60
2021/04/26 11:05:44;;;;;;;13.98;1.55;;;18.50;48.00;;;;;;5092321;28;20076;-61
2021/04/26 11:11:15;;;;;;;9.90;1.33;;;18.40;47.50;;;;;;5095444;28;20083;-58
2021/04/26 11:13:48;;;;;;;40.78;1.98;;;18.40;46.80;;;;;;5092041;28;20069;-61
2021/04/26 11:16:32;;;;;;;27.92;1.70;;;18.40;46.50;;;;;;5092926;28;20152;-59
2021/04/26 11:18:59;;;;;;;19.50;1.50;;;18.30;46.40;;;;;;5094303;28;20076;-60
2021/04/26 11:21:44;;;;;;;14.93;1.30;;;18.20;46.60;;;;;;5095360;28;20069;-60
2021/04/26 11:24:24;;;;;;;12.82;1.05;;;18.20;47.00;;;;;;5095064;28;20072;-59
2021/04/26 11:27:10;;;;;;;64.72;2.40;;;18.10;47.20;;;;;;5088622;28;20081;-58
2021/04/26 11:29:36;;;;;;;12.60;1.17;;;18.10;47.60;;;;;;5094619;28;20139;-62
2021/04/26 11:32:05;;;;;;;;;;;18.20;47.40;;;;;;5094028;28;20072;-62
2021/04/26 11:34:47;;;;;;;23.27;2.08;;;18.20;47.10;;;;;;5094661;28;19964;-60
2021/04/26 11:37:24;;;;;;;23.88;2.15;;;18.20;47.20;;;;;;5091670;28;20092;-61
2021/04/26 11:39:53;;;;;;;29.48;1.95;;;18.00;47.40;;;;;;5073917;28;20540;-60
2021/04/26 11:42:22;;;;;;;41.17;2.83;;;18.00;47.80;;;;;;5093123;28;20077;-60
2021/04/26 11:44:49;;;;;;;29.98;2.22;;;17.90;47.90;;;;;;5093395;28;20164;-59
2021/04/26 11:47:17;;;;;;;35.80;1.90;;;17.90;48.40;;;;;;5094116;28;20120;-61
2021/04/26 11:49:46;;;;;;;21.10;1.70;;;17.80;48.20;;;;;;5097389;28;20093;-59
2021/04/26 11:52:23;;;;;;;24.70;1.52;;;17.80;48.10;;;;;;5092548;28;20273;-59
2021/04/26 11:54:50;;;;;;;11.88;1.52;;;17.80;48.00;;;;;;5092239;28;20089;-61
2021/04/26 11:57:22;;;;;;;14.77;1.63;;;17.80;48.10;;;;;;5090157;28;20084;-61
2021/04/26 11:59:56;;;;;;;16.75;1.40;;;17.80;48.20;;;;;;5092281;28;20126;-61
2021/04/26 12:02:45;;;;;;;7.68;1.02;;;17.70;49.00;;;;;;5097256;28;20152;-61
2021/04/26 12:05:14;;;;;;;13.45;1.35;;;17.70;48.50;;;;;;5096074;28;20160;-60
2021/04/26 12:07:42;;;;;;;15.45;1.80;;;17.80;48.00;;;;;;5093848;28;20093;-60
2021/04/26 12:10:14;;;;;;;15.70;2.17;;;17.90;47.70;;;;;;5092498;28;20096;-61
2021/04/26 12:12:42;;;;;;;15.52;1.55;;;17.80;47.60;;;;;;5090860;28;20065;-59
2021/04/26 12:15:09;;;;;;;16.15;1.45;;;17.90;47.30;;;;;;5094780;28;20108;-59
2021/04/26 12:17:38;;;;;;;9.23;1.38;;;17.90;47.00;;;;;;5093228;28;20073;-60
2021/04/26 12:20:17;;;;;;;11.30;1.17;;;18.00;47.60;;;;;;5091432;28;20065;-60
2021/04/26 12:22:46;;;;;;;14.23;1.23;;;17.90;47.70;;;;;;5092071;28;20155;-60
2021/04/26 12:25:14;;;;;;;14.38;1.33;;;17.90;48.00;;;;;;5091481;28;20172;-60
2021/04/26 12:27:42;;;;;;;16.75;1.63;;;17.80;48.20;;;;;;5074231;28;20082;-56
2021/04/26 12:30:16;;;;;;;9.95;1.10;;;17.80;48.10;;;;;;5092349;28;20102;-59
2021/04/26 12:32:43;;;;;;;9.63;1.23;;;17.80;47.80;;;;;;5092678;28;20080;-58
2021/04/26 12:35:13;;;;;;;11.88;0.93;;;17.70;47.90;;;;;;5092568;28;20576;-58
2021/04/26 12:37:41;;;;;;;13.02;1.30;;;17.70;47.50;;;;;;5093380;28;20525;-57
2021/04/26 12:40:20;;;;;;;13.77;1.85;;;17.80;47.70;;;;;;5092862;28;20568;-58
2021/04/26 12:42:50;;;;;;;18.52;1.23;;;17.80;47.50;;;;;;5089837;28;20167;-59
2021/04/26 12:45:34;;;;;;;5.90;1.10;;;17.70;47.80;;;;;;5079466;28;20088;-59
2021/04/26 12:48:03;;;;;;;8.93;1.02;;;17.70;47.90;;;;;;5092401;28;20142;-60
2021/04/26 12:50:37;;;;;;;8.02;1.30;;;17.80;47.80;;;;;;5091559;28;20088;-59
2021/04/26 12:53:03;;;;;;;17.20;5.80;;;17.70;47.40;;;;;;5086588;28;20487;-57
2021/04/26 12:55:30;;;;;;;20.35;9.68;;;17.80;47.60;;;;;;5096030;28;20076;-60
2021/04/26 12:58:14;;;;;;;17.35;4.43;;;17.80;47.60;;;;;;5093220;28;20521;-60
2021/04/26 13:00:45;;;;;;;14.10;3.60;;;17.80;47.60;;;;;;5093198;28;20140;-61
2021/04/26 13:03:20;;;;;;;12.30;3.40;;;17.70;47.60;;;;;;5075786;28;20081;-59